createdAt,value
2022-12-24T00:01:10.257Z,9.91
2022-12-24T00:03:15.605Z,9.87
2022-12-24T00:05:23.265Z,9.92
2022-12-24T00:07:28.313Z,9.99
2022-12-24T00:09:33.446Z,9.88
2022-12-24T00:11:38.355Z,9.85
2022-12-24T00:13:43.328Z,9.87
2022-12-24T00:15:49.013Z,9.83
2022-12-24T00:17:54.305Z,9.82
2022-12-24T00:19:59.602Z,9.81
2022-12-24T00:22:07.448Z,9.78
2022-12-24T00:24:12.544Z,9.76
2022-12-24T00:26:18.125Z,9.73
2022-12-24T00:28:23.440Z,9.77
2022-12-24T00:30:28.721Z,9.79
2022-12-24T00:32:33.664Z,9.85
2022-12-24T00:34:38.998Z,9.86
2022-12-24T00:36:44.724Z,9.90
2022-12-24T00:38:52.238Z,10.02
2022-12-24T00:41:03.210Z,10.03
2022-12-24T00:43:08.144Z,9.97
2022-12-24T00:45:14.939Z,10.00
2022-12-24T00:47:20.204Z,9.90
2022-12-24T00:49:25.465Z,9.95
2022-12-24T00:51:30.631Z,9.98
2022-12-24T00:53:35.902Z,10.00
2022-12-24T00:55:43.367Z,9.92
2022-12-24T00:57:48.934Z,9.92
2022-12-24T00:59:53.832Z,9.96
2022-12-24T01:01:59.209Z,9.97
2022-12-24T01:04:16.474Z,9.85
2022-12-24T01:06:24.698Z,9.78
2022-12-24T01:08:30.175Z,9.83
2022-12-24T01:10:35.375Z,9.73
2022-12-24T01:12:43.572Z,9.61
2022-12-24T01:14:48.641Z,9.53
2022-12-24T01:16:53.537Z,9.54
2022-12-24T01:18:59.232Z,9.73
2022-12-24T01:21:06.780Z,9.65
2022-12-24T01:23:11.725Z,9.64
2022-12-24T01:25:18.223Z,9.73
2022-12-24T01:27:23.442Z,9.76
2022-12-24T01:29:31.356Z,9.87
2022-12-24T01:31:36.664Z,9.90
2022-12-24T01:33:41.634Z,9.88
2022-12-24T01:35:47.581Z,9.86
2022-12-24T01:37:53.228Z,9.80
2022-12-24T01:40:18.404Z,9.82
2022-12-24T01:42:39.365Z,9.92
2022-12-24T01:44:51.567Z,9.84
2022-12-24T01:47:05.642Z,9.72
2022-12-24T01:49:14.504Z,9.71
2022-12-24T01:51:28.415Z,9.70
2022-12-24T01:53:37.444Z,9.83
2022-12-24T01:55:44.450Z,9.87
2022-12-24T01:57:56.428Z,9.92
2022-12-24T02:00:13.736Z,9.92
2022-12-24T02:02:20.024Z,9.93
2022-12-24T02:04:35.323Z,9.93
2022-12-24T02:06:40.424Z,9.87
2022-12-24T02:08:46.128Z,9.88
2022-12-24T02:10:52.544Z,9.76
2022-12-24T02:12:58.130Z,9.74
2022-12-24T02:15:07.008Z,9.82
2022-12-24T02:17:23.791Z,9.81
2022-12-24T02:20:40.806Z,9.68
2022-12-24T02:23:10.122Z,9.61
2022-12-24T02:25:41.183Z,9.57
2022-12-24T02:28:00.554Z,9.48
2022-12-24T02:30:22.549Z,9.39
2022-12-24T02:32:33.347Z,9.37
2022-12-24T02:34:43.324Z,9.43
2022-12-24T02:36:58.359Z,9.40
2022-12-24T02:39:08.836Z,9.39
2022-12-24T02:41:23.443Z,9.30
2022-12-24T02:43:36.190Z,9.36
2022-12-24T02:45:51.368Z,9.33
2022-12-24T02:48:00.903Z,9.26
2022-12-24T02:50:10.639Z,9.31
2022-12-24T02:52:34.473Z,9.30
2022-12-24T02:57:05.830Z,9.31
2022-12-24T03:00:02.407Z,9.39
2022-12-24T03:02:21.753Z,9.25
2022-12-24T03:04:47.392Z,9.21
2022-12-24T03:07:00.600Z,9.12
2022-12-24T03:09:09.828Z,9.16
2022-12-24T03:11:17.180Z,9.13
2022-12-24T03:13:25.584Z,9.14
2022-12-24T03:15:32.606Z,9.24
2022-12-24T03:17:43.583Z,9.33
2022-12-24T03:19:49.868Z,9.19
2022-12-24T03:21:57.303Z,9.23
2022-12-24T03:24:03.388Z,9.15
2022-12-24T03:26:13.490Z,9.02
2022-12-24T03:28:21.776Z,9.01
2022-12-24T03:30:28.757Z,8.95
2022-12-24T03:32:35.495Z,8.90
2022-12-24T03:34:43.556Z,8.86
2022-12-24T03:36:50.169Z,8.92
2022-12-24T03:38:55.755Z,8.85
2022-12-24T03:41:00.729Z,8.70
2022-12-24T03:43:06.199Z,8.64
2022-12-24T03:45:13.443Z,8.68
2022-12-24T03:47:18.991Z,8.70
2022-12-24T03:49:24.301Z,8.78
2022-12-24T03:51:33.347Z,8.75
2022-12-24T03:53:38.592Z,8.86
2022-12-24T03:55:44.164Z,8.83
2022-12-24T03:57:49.497Z,8.94
2022-12-24T03:59:55.294Z,8.93
2022-12-24T04:02:00.585Z,8.98
2022-12-24T04:04:05.680Z,9.10
2022-12-24T04:06:13.454Z,9.06
2022-12-24T04:08:21.366Z,9.04
2022-12-24T04:10:26.315Z,9.02
2022-12-24T04:12:31.246Z,8.98
2022-12-24T04:14:37.112Z,8.90
2022-12-24T04:16:42.150Z,8.96
2022-12-24T04:18:48.042Z,8.94
2022-12-24T04:20:53.367Z,8.93
2022-12-24T04:22:58.288Z,8.96
2022-12-24T04:25:06.512Z,8.85
2022-12-24T04:27:11.511Z,8.88
2022-12-24T04:29:16.609Z,8.92
2022-12-24T04:31:21.886Z,8.89
2022-12-24T04:33:27.606Z,8.91
2022-12-24T04:35:32.531Z,8.92
2022-12-24T04:37:37.780Z,8.86
2022-12-24T04:39:43.216Z,8.86
2022-12-24T04:41:50.821Z,8.79
2022-12-24T04:43:57.636Z,8.85
2022-12-24T04:46:08.697Z,8.81
2022-12-24T04:48:14.039Z,8.71
2022-12-24T04:50:19.477Z,8.83
2022-12-24T04:52:24.406Z,8.74
2022-12-24T04:54:29.851Z,8.73
2022-12-24T04:56:36.431Z,8.66
2022-12-24T04:58:44.270Z,8.66
2022-12-24T05:00:49.290Z,8.71
2022-12-24T05:02:54.711Z,8.75
2022-12-24T05:04:59.737Z,8.69
2022-12-24T05:07:04.911Z,8.82
2022-12-24T05:09:10.195Z,8.92
2022-12-24T05:11:16.419Z,8.98
2022-12-24T05:13:21.352Z,8.96
2022-12-24T05:15:29.221Z,8.90
2022-12-24T05:17:34.164Z,8.88
2022-12-24T05:19:39.067Z,8.84
2022-12-24T05:21:44.376Z,8.84
2022-12-24T05:24:02.222Z,8.76
2022-12-24T05:26:23.806Z,8.71
2022-12-24T05:28:28.984Z,8.72
2022-12-24T05:30:37.082Z,8.80
2022-12-24T05:32:41.988Z,8.79
2022-12-24T05:34:46.918Z,8.73
2022-12-24T05:36:52.040Z,8.76
2022-12-24T05:38:57.250Z,8.74
2022-12-24T05:41:02.189Z,8.75
2022-12-24T05:43:07.247Z,8.75
2022-12-24T05:45:13.511Z,8.67
2022-12-24T05:47:20.998Z,8.74
2022-12-24T05:49:25.923Z,8.82
2022-12-24T05:51:30.874Z,8.75
2022-12-24T05:53:36.457Z,8.69
2022-12-24T05:55:42.675Z,8.63
2022-12-24T05:57:47.612Z,8.60
2022-12-24T05:59:52.563Z,8.63
2022-12-24T06:01:57.987Z,8.54
2022-12-24T06:04:05.744Z,8.61
2022-12-24T06:06:13.748Z,8.56
2022-12-24T06:08:18.865Z,8.51
2022-12-24T06:10:23.899Z,8.49
2022-12-24T06:12:29.460Z,8.44
2022-12-24T06:14:34.867Z,8.34
2022-12-24T06:16:39.894Z,8.31
2022-12-24T06:18:45.918Z,8.28
2022-12-24T06:20:56.932Z,8.24
2022-12-24T06:23:01.815Z,8.37
2022-12-24T06:25:07.772Z,8.38
2022-12-24T06:27:12.675Z,8.41
2022-12-24T06:29:17.591Z,8.37
2022-12-24T06:31:24.981Z,8.36
2022-12-24T06:33:30.585Z,8.29
2022-12-24T06:35:35.753Z,8.24
2022-12-24T06:37:43.257Z,8.18
2022-12-24T06:39:48.794Z,8.14
2022-12-24T06:41:54.163Z,8.13
2022-12-24T06:43:59.433Z,8.19
2022-12-24T06:46:06.166Z,8.23
2022-12-24T06:48:11.980Z,8.22
2022-12-24T06:50:17.083Z,8.18
2022-12-24T06:52:22.203Z,8.28
2022-12-24T06:54:29.707Z,8.28
2022-12-24T06:56:34.699Z,8.33
2022-12-24T06:58:40.985Z,8.27
2022-12-24T07:00:45.964Z,8.24
2022-12-24T07:02:51.531Z,8.16
2022-12-24T07:04:56.886Z,8.31
2022-12-24T07:07:01.861Z,8.33
2022-12-24T07:09:06.928Z,8.32
2022-12-24T07:11:14.876Z,8.31
2022-12-24T07:13:20.378Z,8.24
2022-12-24T07:15:25.327Z,8.18
2022-12-24T07:17:30.821Z,8.23
2022-12-24T07:19:35.945Z,8.26
2022-12-24T07:21:41.108Z,8.32
2022-12-24T07:23:46.023Z,8.25
2022-12-24T07:25:51.303Z,8.24
2022-12-24T07:27:59.348Z,8.23
2022-12-24T07:30:04.298Z,8.20
2022-12-24T07:32:09.331Z,8.24
2022-12-24T07:34:14.926Z,8.32
2022-12-24T07:36:23.468Z,8.28
2022-12-24T07:38:28.928Z,8.22
2022-12-24T07:40:36.243Z,8.23
2022-12-24T07:42:41.321Z,8.29
2022-12-24T07:44:52.163Z,8.28
2022-12-24T07:46:57.136Z,8.24
2022-12-24T07:49:02.097Z,8.14
2022-12-24T07:51:07.744Z,8.11
2022-12-24T07:53:12.671Z,8.07
2022-12-24T07:55:17.824Z,8.07
2022-12-24T07:57:22.727Z,8.08
2022-12-24T07:59:28.266Z,8.04
2022-12-24T08:01:35.836Z,8.01
2022-12-24T08:03:41.436Z,8.00
2022-12-24T08:05:46.470Z,8.06
2022-12-24T08:07:51.719Z,8.11
2022-12-24T08:09:56.837Z,8.18
2022-12-24T08:12:02.444Z,8.18
2022-12-24T08:14:07.395Z,8.17
2022-12-24T08:16:12.461Z,8.20
2022-12-24T08:18:20.027Z,8.33
2022-12-24T08:20:25.350Z,8.42
2022-12-24T08:22:31.318Z,8.44
2022-12-24T08:24:37.537Z,8.50
2022-12-24T08:26:42.666Z,8.55
2022-12-24T08:28:47.620Z,8.58
2022-12-24T08:30:54.038Z,8.58
2022-12-24T08:32:59.004Z,8.65
2022-12-24T08:35:07.920Z,8.65
2022-12-24T08:37:13.505Z,8.66
2022-12-24T08:39:18.443Z,8.66
2022-12-24T08:41:23.700Z,8.63
2022-12-24T08:43:29.362Z,8.66
2022-12-24T08:45:40.104Z,8.61
2022-12-24T08:47:46.982Z,8.58
2022-12-24T08:49:51.883Z,8.57
2022-12-24T08:52:00.155Z,8.58
2022-12-24T08:54:05.081Z,8.65
2022-12-24T08:56:13.020Z,8.69
2022-12-24T08:58:18.064Z,8.72
2022-12-24T09:00:24.064Z,8.74
2022-12-24T09:02:29.028Z,8.81
2022-12-24T09:04:34.212Z,8.82
2022-12-24T09:06:40.204Z,8.81
2022-12-24T09:08:47.879Z,8.85
2022-12-24T09:10:53.533Z,8.89
2022-12-24T09:12:58.538Z,8.96
2022-12-24T09:15:04.292Z,8.92
2022-12-24T09:17:09.809Z,8.91
2022-12-24T09:19:15.030Z,8.97
2022-12-24T09:21:20.352Z,8.98
2022-12-24T09:23:25.283Z,8.99
2022-12-24T09:25:33.161Z,9.05
2022-12-24T09:27:38.651Z,9.11
2022-12-24T09:29:43.583Z,9.18
2022-12-24T09:31:50.084Z,9.15
2022-12-24T09:33:55.457Z,9.12
2022-12-24T09:36:00.462Z,9.06
2022-12-24T09:38:05.716Z,9.05
2022-12-24T09:40:28.306Z,9.05
2022-12-24T09:42:51.359Z,9.07
2022-12-24T09:45:05.799Z,9.07
2022-12-24T09:47:21.420Z,9.13
2022-12-24T09:49:32.222Z,9.19
2022-12-24T09:51:42.351Z,9.17
2022-12-24T09:53:54.260Z,9.24
2022-12-24T09:56:04.084Z,9.27
2022-12-24T09:58:25.007Z,9.28
2022-12-24T10:00:33.611Z,9.31
2022-12-24T10:02:38.647Z,9.33
2022-12-24T10:04:45.444Z,9.26
2022-12-24T10:06:57.296Z,9.31
2022-12-24T10:09:15.818Z,9.39
2022-12-24T10:11:30.602Z,9.40
2022-12-24T10:13:56.894Z,9.50
2022-12-24T10:16:09.887Z,9.51
2022-12-24T10:18:29.910Z,9.53
2022-12-24T10:20:48.173Z,9.58
2022-12-24T10:23:01.962Z,9.64
2022-12-24T10:25:20.206Z,9.67
2022-12-24T10:27:32.360Z,9.71
2022-12-24T10:29:45.865Z,9.76
2022-12-24T10:31:59.547Z,9.75
2022-12-24T10:34:09.855Z,9.69
2022-12-24T10:36:20.126Z,9.69
2022-12-24T10:38:25.795Z,9.77
2022-12-24T10:40:38.880Z,9.84
2022-12-24T10:42:51.039Z,9.93
2022-12-24T10:45:05.756Z,9.94
2022-12-24T10:47:13.261Z,9.89
2022-12-24T10:49:21.771Z,9.87
2022-12-24T10:51:38.275Z,9.88
2022-12-24T10:53:48.419Z,9.87
2022-12-24T10:55:53.691Z,9.94
2022-12-24T10:58:06.621Z,9.93
2022-12-24T11:00:28.546Z,9.95
2022-12-24T11:02:39.502Z,10.02
2022-12-24T11:04:52.348Z,10.04
2022-12-24T11:07:00.239Z,9.99
2022-12-24T11:09:25.708Z,10.06
2022-12-24T11:11:38.262Z,10.07
2022-12-24T11:13:47.060Z,10.08
2022-12-24T11:16:03.144Z,10.11
2022-12-24T11:18:16.557Z,10.11
2022-12-24T11:20:25.528Z,10.23
2022-12-24T11:22:33.521Z,10.27
2022-12-24T11:24:43.781Z,10.33
2022-12-24T11:26:54.822Z,10.35
2022-12-24T11:29:17.954Z,10.35
2022-12-24T11:31:27.044Z,10.39
2022-12-24T11:33:33.772Z,10.37
2022-12-24T11:35:48.187Z,10.42
2022-12-24T11:38:11.499Z,10.39
2022-12-24T11:40:26.644Z,10.36
2022-12-24T11:42:38.102Z,10.35
2022-12-24T11:44:52.204Z,10.26
2022-12-24T11:46:59.831Z,10.21
2022-12-24T11:49:26.348Z,10.20
2022-12-24T11:51:31.251Z,10.27
2022-12-24T11:53:44.318Z,10.35
2022-12-24T11:55:51.862Z,10.37
2022-12-24T11:58:03.983Z,10.45
2022-12-24T12:00:12.931Z,10.44
2022-12-24T12:02:26.187Z,10.35
2022-12-24T12:04:35.755Z,10.38
2022-12-24T12:06:45.845Z,10.42
2022-12-24T12:08:53.375Z,10.53
2022-12-24T12:11:01.471Z,10.62
2022-12-24T12:13:15.780Z,10.63
2022-12-24T12:15:27.619Z,10.51
2022-12-24T12:17:39.805Z,10.48
2022-12-24T12:19:51.886Z,10.44
2022-12-24T12:21:56.896Z,10.44
2022-12-24T12:24:08.657Z,10.55
2022-12-24T12:26:18.281Z,10.65
2022-12-24T12:28:26.157Z,10.73
2022-12-24T12:30:33.618Z,10.80
2022-12-24T12:32:49.201Z,10.88
2022-12-24T12:35:05.873Z,10.80
2022-12-24T12:37:17.209Z,10.71
2022-12-24T12:39:22.388Z,10.66
2022-12-24T12:41:56.508Z,10.76
2022-12-24T12:44:45.757Z,10.76
2022-12-24T12:47:15.231Z,10.75
2022-12-24T12:49:40.290Z,10.81
2022-12-24T12:51:56.820Z,10.82
2022-12-24T12:54:24.612Z,10.79
2022-12-24T12:56:35.614Z,10.67
2022-12-24T12:58:46.548Z,10.55
2022-12-24T13:01:00.573Z,10.44
2022-12-24T13:03:31.243Z,10.28
2022-12-24T13:06:29.185Z,10.27
2022-12-24T13:09:25.279Z,10.53
2022-12-24T13:12:03.662Z,10.97
2022-12-24T13:14:38.634Z,11.30
2022-12-24T13:17:21.802Z,11.31
2022-12-24T13:21:54.272Z,11.02
2022-12-24T13:24:10.043Z,10.91
2022-12-24T13:26:17.715Z,10.68
2022-12-24T13:28:39.780Z,10.65
2022-12-24T13:30:45.509Z,10.55
2022-12-24T13:32:54.536Z,10.59
2022-12-24T13:35:03.626Z,10.45
2022-12-24T13:37:25.544Z,10.41
2022-12-24T13:39:30.464Z,10.50
2022-12-24T13:41:53.842Z,10.62
2022-12-24T13:44:07.403Z,10.69
2022-12-24T13:46:12.761Z,10.81
2022-12-24T13:48:36.116Z,10.77
2022-12-24T13:50:46.242Z,10.80
2022-12-24T13:52:57.125Z,10.71
2022-12-24T13:55:18.248Z,10.55
2022-12-24T13:57:41.435Z,10.35
2022-12-24T13:59:46.648Z,10.22
2022-12-24T14:01:51.762Z,10.09
2022-12-24T14:04:01.908Z,10.02
2022-12-24T14:06:12.457Z,9.92
2022-12-24T14:08:33.071Z,9.83
2022-12-24T14:10:42.693Z,9.78
2022-12-24T14:12:53.728Z,9.80
2022-12-24T14:14:58.642Z,9.84
2022-12-24T14:17:06.068Z,9.90
2022-12-24T14:19:17.890Z,10.00
2022-12-24T14:21:29.735Z,10.01
2022-12-24T14:23:55.265Z,10.00
2022-12-24T14:26:01.205Z,9.97
2022-12-24T14:28:19.094Z,9.99
2022-12-24T14:30:26.682Z,9.99
2022-12-24T14:32:38.824Z,9.98
2022-12-24T14:34:43.766Z,9.93
2022-12-24T14:36:50.343Z,9.93
2022-12-24T14:39:02.958Z,9.97
2022-12-24T14:41:21.936Z,9.94
2022-12-24T14:43:48.830Z,9.94
2022-12-24T14:46:07.714Z,9.95
2022-12-24T14:48:21.963Z,9.95
2022-12-24T14:50:53.716Z,9.92
2022-12-24T14:53:16.682Z,9.81
2022-12-24T14:55:42.897Z,9.79
2022-12-24T14:57:47.845Z,9.75
2022-12-24T14:59:55.974Z,9.72
2022-12-24T15:02:00.997Z,9.73
2022-12-24T15:04:17.609Z,9.69
2022-12-24T15:06:22.637Z,9.71
2022-12-24T15:08:34.011Z,9.71
2022-12-24T15:10:45.136Z,9.75
2022-12-24T15:12:50.479Z,9.70
2022-12-24T15:14:55.439Z,9.65
2022-12-24T15:17:04.627Z,9.73
2022-12-24T15:19:21.586Z,9.71
2022-12-24T15:21:32.629Z,9.63
2022-12-24T15:23:39.840Z,9.55
2022-12-24T15:25:47.394Z,9.57
2022-12-24T15:27:52.834Z,9.51
2022-12-24T15:30:00.714Z,9.41
2022-12-24T15:32:07.181Z,9.28
2022-12-24T15:34:30.647Z,9.18
2022-12-24T15:36:38.642Z,9.10
2022-12-24T15:38:46.461Z,9.10
2022-12-24T15:40:54.560Z,9.09
2022-12-24T15:42:59.546Z,9.07
2022-12-24T15:45:09.107Z,9.11
2022-12-24T15:47:21.987Z,9.21
2022-12-24T15:49:28.188Z,9.20
2022-12-24T15:51:40.257Z,9.31
2022-12-24T15:53:49.196Z,9.33
2022-12-24T15:56:09.856Z,9.31
2022-12-24T15:58:28.580Z,9.29
2022-12-24T16:00:33.827Z,9.29
2022-12-24T16:02:42.675Z,9.25
2022-12-24T16:04:47.777Z,9.16
2022-12-24T16:06:59.289Z,9.11
2022-12-24T16:09:05.198Z,9.18
2022-12-24T16:11:19.445Z,9.15
2022-12-24T16:13:28.369Z,9.15
2022-12-24T16:15:33.663Z,9.09
2022-12-24T16:17:38.683Z,9.03
2022-12-24T16:19:44.176Z,8.97
2022-12-24T16:21:53.549Z,8.94
2022-12-24T16:24:06.762Z,8.95
2022-12-24T16:26:12.129Z,8.89
2022-12-24T16:28:22.853Z,8.82
2022-12-24T16:30:28.176Z,8.81
2022-12-24T16:32:38.234Z,8.79
2022-12-24T16:34:44.290Z,8.78
2022-12-24T16:36:50.271Z,8.82
2022-12-24T16:39:07.708Z,8.84
2022-12-24T16:41:12.611Z,8.78
2022-12-24T16:43:32.999Z,8.82
2022-12-24T16:45:40.465Z,8.72
2022-12-24T16:47:45.419Z,8.64
2022-12-24T16:49:50.443Z,8.55
2022-12-24T16:51:55.917Z,8.44
2022-12-24T16:54:01.330Z,8.36
2022-12-24T16:56:06.835Z,8.21
2022-12-24T16:58:14.851Z,8.11
2022-12-24T17:00:26.943Z,8.01
2022-12-24T17:02:32.031Z,7.93
2022-12-24T17:04:37.846Z,7.86
2022-12-24T17:06:43.285Z,7.74
2022-12-24T17:08:48.204Z,7.69
2022-12-24T17:10:54.508Z,7.63
2022-12-24T17:12:59.998Z,7.54
2022-12-24T17:15:05.406Z,7.45
2022-12-24T17:17:24.196Z,7.38
2022-12-24T17:19:29.197Z,7.26
2022-12-24T17:21:34.529Z,7.15
2022-12-24T17:23:40.259Z,7.10
2022-12-24T17:25:45.867Z,7.06
2022-12-24T17:27:50.875Z,6.92
2022-12-24T17:29:56.103Z,6.74
2022-12-24T17:32:01.191Z,6.70
2022-12-24T17:34:10.140Z,6.68
2022-12-24T17:36:15.090Z,6.69
2022-12-24T17:38:20.528Z,6.70
2022-12-24T17:40:25.636Z,6.84
2022-12-24T17:42:30.520Z,6.77
2022-12-24T17:44:36.070Z,6.71
2022-12-24T17:46:41.024Z,6.71
2022-12-24T17:48:46.998Z,6.73
2022-12-24T17:50:55.140Z,6.74
2022-12-24T17:53:00.041Z,6.69
2022-12-24T17:55:05.123Z,6.64
2022-12-24T17:57:10.306Z,6.56
2022-12-24T17:59:15.411Z,6.50
2022-12-24T18:01:23.773Z,6.48
2022-12-24T18:03:29.697Z,6.34
2022-12-24T18:05:37.828Z,6.33
2022-12-24T18:07:46.543Z,6.39
2022-12-24T18:09:51.503Z,6.32
2022-12-24T18:11:56.940Z,6.29
2022-12-24T18:14:03.825Z,6.30
2022-12-24T18:16:18.753Z,6.46
2022-12-24T18:18:24.244Z,6.42
2022-12-24T18:20:29.898Z,6.48
2022-12-24T18:22:35.123Z,6.52
2022-12-24T18:24:42.650Z,6.47
2022-12-24T18:26:48.844Z,6.42
2022-12-24T18:28:56.696Z,6.31
2022-12-24T18:31:02.678Z,6.20
2022-12-24T18:33:07.999Z,6.22
2022-12-24T18:35:13.764Z,6.32
2022-12-24T18:37:18.677Z,6.15
2022-12-24T18:39:24.101Z,6.13
2022-12-24T18:41:33.193Z,5.90
2022-12-24T18:43:38.934Z,5.92
2022-12-24T18:45:44.390Z,5.84
2022-12-24T18:47:50.823Z,5.81
2022-12-24T18:49:56.092Z,5.64
2022-12-24T18:52:01.375Z,6.00
2022-12-24T18:54:07.486Z,6.01
2022-12-24T18:58:26.945Z,6.23
2022-12-24T19:00:32.795Z,6.41
2022-12-24T19:02:37.818Z,6.60
2022-12-24T19:04:43.320Z,6.88
2022-12-24T19:06:53.197Z,7.01
2022-12-24T19:09:00.296Z,7.13
2022-12-24T19:11:06.379Z,7.09
2022-12-24T19:13:12.370Z,7.07
2022-12-24T19:15:20.129Z,7.06
2022-12-24T19:17:25.063Z,7.01
2022-12-24T19:19:30.813Z,6.93
2022-12-24T19:21:35.853Z,6.90
2022-12-24T19:23:40.928Z,6.82
2022-12-24T19:25:46.382Z,6.73
2022-12-24T19:27:51.297Z,6.60
2022-12-24T19:29:56.644Z,6.51
2022-12-24T19:32:04.170Z,6.57
2022-12-24T19:34:09.208Z,6.52
2022-12-24T19:36:18.249Z,6.42
2022-12-24T19:38:23.403Z,6.34
2022-12-24T19:40:28.819Z,6.41
2022-12-24T19:42:37.027Z,6.33
2022-12-24T19:44:42.303Z,6.33
2022-12-24T19:46:47.655Z,6.29
2022-12-24T19:48:58.240Z,6.32
2022-12-24T19:51:04.421Z,6.26
2022-12-24T19:53:09.326Z,6.27
2022-12-24T19:55:15.374Z,6.23
2022-12-24T19:57:21.270Z,6.37
2022-12-24T19:59:26.206Z,6.35
2022-12-24T20:01:34.141Z,6.32
2022-12-24T20:03:39.577Z,6.36
2022-12-24T20:05:47.470Z,6.55
2022-12-24T20:07:52.357Z,6.55
2022-12-24T20:09:57.276Z,6.65
2022-12-24T20:12:03.906Z,6.73
2022-12-24T20:14:09.669Z,6.79
2022-12-24T20:16:18.230Z,6.88
2022-12-24T20:18:23.794Z,7.01
2022-12-24T20:20:28.831Z,7.13
2022-12-24T20:22:36.332Z,7.15
2022-12-24T20:24:41.223Z,7.13
2022-12-24T20:26:46.262Z,7.18
2022-12-24T20:28:54.450Z,7.21
2022-12-24T20:30:59.669Z,7.22
2022-12-24T20:33:04.702Z,7.24
2022-12-24T20:35:11.267Z,7.24
2022-12-24T20:37:16.175Z,7.23
2022-12-24T20:39:23.921Z,7.26
2022-12-24T20:41:32.583Z,7.25
2022-12-24T20:43:45.084Z,7.23
2022-12-24T20:45:54.325Z,7.22
2022-12-24T20:47:59.735Z,7.21
2022-12-24T20:50:04.698Z,7.18
2022-12-24T20:52:09.809Z,7.25
2022-12-24T20:54:15.121Z,7.31
2022-12-24T20:56:22.720Z,7.45
2022-12-24T20:58:27.665Z,7.59
2022-12-24T21:00:32.652Z,7.60
2022-12-24T21:02:37.813Z,7.73
2022-12-24T21:04:42.949Z,7.74
2022-12-24T21:06:47.900Z,7.66
2022-12-24T21:08:54.623Z,7.66
2022-12-24T21:11:11.961Z,7.77
2022-12-24T21:13:19.746Z,7.79
2022-12-24T21:15:27.146Z,7.75
2022-12-24T21:17:32.306Z,7.70
2022-12-24T21:19:37.209Z,7.63
2022-12-24T21:21:42.567Z,7.57
2022-12-24T21:23:47.735Z,7.55
2022-12-24T21:26:01.336Z,7.52
2022-12-24T21:28:06.469Z,7.60
2022-12-24T21:30:15.114Z,7.57
2022-12-24T21:32:20.026Z,7.53
2022-12-24T21:34:25.044Z,7.47
2022-12-24T21:36:29.960Z,7.47
2022-12-24T21:38:35.202Z,7.51
2022-12-24T21:40:41.558Z,7.51
2022-12-24T21:42:46.616Z,7.49
2022-12-24T21:44:51.675Z,7.49
2022-12-24T21:46:59.122Z,7.46
2022-12-24T21:49:16.634Z,7.43
2022-12-24T21:51:21.603Z,7.37
2022-12-24T21:53:39.169Z,7.33
2022-12-24T21:55:44.073Z,7.35
2022-12-24T21:57:55.573Z,7.25
2022-12-24T22:00:21.903Z,7.16
2022-12-24T22:02:30.061Z,7.04
2022-12-24T22:04:35.576Z,6.90
2022-12-24T22:06:53.020Z,6.89
2022-12-24T22:09:11.728Z,6.95
2022-12-24T22:11:30.188Z,6.78
2022-12-24T22:13:35.820Z,6.72
2022-12-24T22:15:47.705Z,6.67
2022-12-24T22:17:55.640Z,6.63
2022-12-24T22:20:01.959Z,6.57
2022-12-24T22:22:07.199Z,6.53
2022-12-24T22:24:12.523Z,6.48
2022-12-24T22:26:20.255Z,6.35
2022-12-24T22:31:26.470Z,6.28
2022-12-24T22:33:36.419Z,6.22
2022-12-24T22:35:44.331Z,6.28
2022-12-24T22:37:53.041Z,6.32
2022-12-24T22:40:00.926Z,6.29
2022-12-24T22:42:09.276Z,6.22
2022-12-24T22:47:21.229Z,6.36
2022-12-24T22:49:28.727Z,6.45
2022-12-24T22:51:33.885Z,6.46
2022-12-24T22:53:39.517Z,6.45
2022-12-24T22:55:44.412Z,6.42
2022-12-24T22:57:49.527Z,6.34
2022-12-24T22:59:55.065Z,6.22
2022-12-24T23:02:00.146Z,6.18
2022-12-24T23:04:06.139Z,6.21
2022-12-24T23:06:14.672Z,6.25
2022-12-24T23:08:19.566Z,6.33
2022-12-24T23:10:25.224Z,6.30
2022-12-24T23:12:43.503Z,6.28
2022-12-24T23:15:00.615Z,6.26
2022-12-24T23:17:06.243Z,6.34
2022-12-24T23:19:12.789Z,6.39
2022-12-24T23:21:20.573Z,6.45
2022-12-24T23:23:25.555Z,6.51
2022-12-24T23:25:30.472Z,6.44
2022-12-24T23:27:35.396Z,6.36
2022-12-24T23:29:40.762Z,6.29
2022-12-24T23:31:45.663Z,6.29
2022-12-24T23:33:51.914Z,6.30
2022-12-24T23:35:57.176Z,6.38
2022-12-24T23:38:05.030Z,6.38
2022-12-24T23:40:12.338Z,6.32
2022-12-24T23:42:17.280Z,6.30
2022-12-24T23:44:28.206Z,6.38
2022-12-24T23:46:36.805Z,6.44
2022-12-24T23:48:42.283Z,6.53
2022-12-24T23:50:48.585Z,6.58
2022-12-24T23:52:53.765Z,6.64
2022-12-24T23:55:01.444Z,6.59
2022-12-24T23:57:06.433Z,6.57
2022-12-24T23:59:11.677Z,6.47
